createdAt,value
2023-02-17T00:00:00.366Z,59.44
2023-02-17T00:01:00.370Z,60.02
2023-02-17T00:02:00.375Z,60.13
2023-02-17T00:03:00.380Z,62.31
2023-02-17T00:04:00.388Z,59.18
2023-02-17T00:05:00.360Z,61.00
2023-02-17T00:06:00.357Z,59.69
2023-02-17T00:07:00.350Z,59.16
2023-02-17T00:08:00.367Z,58.64
2023-02-17T00:09:00.375Z,56.62
2023-02-17T00:10:00.360Z,62.27
2023-02-17T00:11:00.356Z,61.93
2023-02-17T00:12:00.367Z,61.63
2023-02-17T00:13:00.327Z,59.11
2023-02-17T00:14:00.367Z,60.15
2023-02-17T00:15:00.367Z,60.30
2023-02-17T00:16:00.385Z,60.83
2023-02-17T00:17:00.323Z,61.41
2023-02-17T00:18:00.332Z,60.41
2023-02-17T00:19:00.365Z,60.54
2023-02-17T00:20:00.325Z,60.78
2023-02-17T00:21:00.325Z,59.37
2023-02-17T00:22:00.311Z,58.60
2023-02-17T00:23:00.293Z,62.06
2023-02-17T00:24:00.396Z,61.62
2023-02-17T00:25:00.318Z,60.05
2023-02-17T00:26:00.299Z,57.88
2023-02-17T00:27:00.318Z,59.02
2023-02-17T00:28:00.325Z,59.93
2023-02-17T00:29:00.284Z,59.77
2023-02-17T00:30:00.330Z,59.36
2023-02-17T00:31:00.419Z,62.86
2023-02-17T00:32:00.440Z,60.47
2023-02-17T00:33:00.307Z,58.76
2023-02-17T00:34:00.309Z,63.27
2023-02-17T00:35:00.286Z,59.97
2023-02-17T00:36:00.299Z,59.99
2023-02-17T00:37:00.280Z,59.48
2023-02-17T00:38:00.351Z,57.69
2023-02-17T00:39:00.360Z,60.73
2023-02-17T00:43:00.324Z,59.80
2023-02-17T00:44:00.279Z,59.16
2023-02-17T00:45:00.289Z,62.68
2023-02-17T00:46:00.290Z,58.68
2023-02-17T00:47:00.275Z,57.81
2023-02-17T01:07:00.242Z,54.66
2023-02-17T02:01:00.228Z,58.28
2023-02-17T02:02:00.388Z,55.21
2023-02-17T02:03:00.259Z,57.66
2023-02-17T02:04:00.246Z,57.83
2023-02-17T02:05:00.207Z,57.53
2023-02-17T02:06:00.220Z,60.41
2023-02-17T02:07:00.223Z,56.34
2023-02-17T02:08:00.255Z,57.91
2023-02-17T02:09:00.237Z,56.58
2023-02-17T02:10:00.250Z,57.63
2023-02-17T02:11:00.256Z,57.68
2023-02-17T02:12:00.275Z,59.05
2023-02-17T02:13:00.270Z,60.52
2023-02-17T02:14:00.278Z,58.56
2023-02-17T02:15:00.257Z,56.21
2023-02-17T02:16:00.310Z,61.99
2023-02-17T02:17:00.267Z,59.87
2023-02-17T02:18:00.313Z,59.72
2023-02-17T02:19:00.294Z,61.08
2023-02-17T02:20:00.288Z,60.18
2023-02-17T02:21:00.287Z,60.27
2023-02-17T02:22:00.305Z,59.01
2023-02-17T02:23:00.299Z,62.04
2023-02-17T02:24:00.318Z,59.70
2023-02-17T02:25:00.325Z,62.39
2023-02-17T02:26:00.296Z,58.08
2023-02-17T02:27:00.300Z,60.93
2023-02-17T02:28:00.316Z,59.24
2023-02-17T02:29:00.312Z,57.36
2023-02-17T02:30:00.360Z,62.37
2023-02-17T02:31:00.424Z,59.87
2023-02-17T02:32:00.444Z,61.50
2023-02-17T02:33:00.340Z,62.03
2023-02-17T02:34:00.375Z,56.28
2023-02-17T02:35:00.389Z,58.52
2023-02-17T02:36:00.411Z,61.22
2023-02-17T02:37:00.388Z,60.29
2023-02-17T02:38:00.377Z,61.39
2023-02-17T02:39:00.490Z,60.86
2023-02-17T02:40:00.434Z,58.74
2023-02-17T02:41:00.425Z,58.66
2023-02-17T02:42:00.415Z,58.64
2023-02-17T02:43:00.403Z,57.68
2023-02-17T02:44:00.414Z,58.28
2023-02-17T02:45:00.427Z,61.75
2023-02-17T02:46:00.503Z,58.02
2023-02-17T02:47:00.442Z,56.22
2023-02-17T02:48:00.437Z,57.25
2023-02-17T02:49:00.451Z,60.60
2023-02-17T02:50:00.462Z,59.48
2023-02-17T02:51:00.481Z,53.49
2023-02-17T02:52:00.464Z,57.49
2023-02-17T02:53:00.479Z,55.78
2023-02-17T02:54:00.497Z,57.96
2023-02-17T02:55:00.475Z,57.38
2023-02-17T02:56:00.457Z,58.05
2023-02-17T02:57:00.576Z,55.17
2023-02-17T02:58:00.478Z,57.39
2023-02-17T02:59:00.477Z,57.22
2023-02-17T03:00:00.509Z,58.77
2023-02-17T03:01:00.560Z,52.45
2023-02-17T03:02:00.523Z,58.57
2023-02-17T03:03:00.492Z,53.91
2023-02-17T03:04:00.594Z,56.39
2023-02-17T03:05:00.537Z,55.69
2023-02-17T03:06:00.534Z,55.47
2023-02-17T03:07:00.514Z,55.51
2023-02-17T03:08:00.520Z,57.45
2023-02-17T03:09:00.552Z,56.48
2023-02-17T03:10:00.535Z,53.96
2023-02-17T03:11:00.535Z,52.98
2023-02-17T03:12:00.540Z,57.02
2023-02-17T03:13:00.584Z,54.71
2023-02-17T03:14:00.556Z,55.04
2023-02-17T03:15:00.578Z,53.78
2023-02-17T03:16:00.609Z,54.16
2023-02-17T03:17:00.582Z,55.29
2023-02-17T03:18:00.593Z,52.75
2023-02-17T03:19:00.635Z,54.09
2023-02-17T03:20:00.571Z,53.95
2023-02-17T03:21:00.608Z,54.55
2023-02-17T03:22:00.607Z,53.64
2023-02-17T03:23:00.631Z,53.45
2023-02-17T03:24:00.636Z,54.52
2023-02-17T03:25:00.666Z,54.15
2023-02-17T03:26:00.668Z,50.47
2023-02-17T03:27:00.699Z,51.89
2023-02-17T03:28:00.677Z,51.81
2023-02-17T03:29:00.710Z,50.68
2023-02-17T03:30:00.789Z,52.15
2023-02-17T03:31:00.747Z,53.51
2023-02-17T03:32:00.757Z,51.66
2023-02-17T03:33:00.727Z,48.39
2023-02-17T03:34:00.746Z,49.34
2023-02-17T03:35:00.734Z,50.44
2023-02-17T03:36:00.748Z,51.09
2023-02-17T03:37:00.754Z,50.60
2023-02-17T03:38:00.759Z,53.40
2023-02-17T03:39:00.778Z,50.30
2023-02-17T03:40:00.781Z,52.66
2023-02-17T03:41:00.785Z,47.55
2023-02-17T03:42:00.780Z,53.12
2023-02-17T03:43:00.790Z,48.31
2023-02-17T03:44:00.799Z,52.36
2023-02-17T03:45:00.852Z,50.32
2023-02-17T03:46:00.852Z,50.99
2023-02-17T03:47:00.844Z,52.12
2023-02-17T03:48:00.838Z,48.59
2023-02-17T03:49:00.865Z,48.85
2023-02-17T03:50:00.890Z,51.55
2023-02-17T03:51:00.896Z,52.65
2023-02-17T03:52:00.873Z,51.70
2023-02-17T03:53:00.875Z,53.60
2023-02-17T03:54:00.915Z,53.23
2023-02-17T03:55:00.894Z,51.91
2023-02-17T03:56:00.899Z,52.72
2023-02-17T03:57:00.937Z,50.99
2023-02-17T03:58:00.925Z,50.17
2023-02-17T03:59:00.961Z,49.39
2023-02-17T04:00:00.939Z,49.57
2023-02-17T04:01:01.014Z,51.10
2023-02-17T04:02:00.949Z,50.05
2023-02-17T04:03:00.953Z,52.67
2023-02-17T04:04:00.982Z,51.52
2023-02-17T04:05:00.964Z,49.56
2023-02-17T04:06:00.975Z,50.91
2023-02-17T04:07:00.996Z,52.18
2023-02-17T04:08:01.000Z,51.26
2023-02-17T04:09:01.002Z,51.99
2023-02-17T04:10:02.279Z,51.00
2023-02-17T04:11:00.973Z,51.97
2023-02-17T04:15:00.952Z,51.04
2023-02-17T04:41:00.825Z,47.23
2023-02-17T04:42:00.809Z,46.62
2023-02-17T04:43:00.784Z,47.04
2023-02-17T04:44:00.781Z,48.36
2023-02-17T04:45:00.749Z,48.00
2023-02-17T04:55:00.743Z,50.31
2023-02-17T04:56:00.684Z,49.24
2023-02-17T04:57:00.690Z,50.55
2023-02-17T04:58:00.877Z,49.74
2023-02-17T04:59:01.041Z,48.63
2023-02-17T05:00:00.897Z,50.37
2023-02-17T05:01:00.695Z,51.65
2023-02-17T05:02:00.685Z,51.49
2023-02-17T05:03:00.685Z,51.49
2023-02-17T05:04:00.655Z,50.38
2023-02-17T05:05:00.698Z,51.06
2023-02-17T05:06:00.678Z,52.49
2023-02-17T05:07:00.627Z,49.03
2023-02-17T05:08:00.647Z,50.01
2023-02-17T05:09:00.633Z,49.94
2023-02-17T05:10:00.621Z,50.17
2023-02-17T05:11:00.635Z,49.97
2023-02-17T05:12:00.601Z,50.67
2023-02-17T05:13:00.617Z,50.06
2023-02-17T05:14:00.591Z,48.50
2023-02-17T05:15:00.564Z,48.62
2023-02-17T05:16:00.598Z,49.47
2023-02-17T05:17:00.603Z,50.80
2023-02-17T05:18:00.564Z,48.43
2023-02-17T05:19:00.603Z,49.13
2023-02-17T05:20:00.571Z,47.97
2023-02-17T05:21:00.556Z,47.86
2023-02-17T05:22:00.544Z,47.33
2023-02-17T05:23:00.550Z,44.91
2023-02-17T05:24:00.544Z,45.91
2023-02-17T05:25:00.525Z,48.48
2023-02-17T05:26:00.517Z,48.59
2023-02-17T05:27:00.517Z,46.64
2023-02-17T05:28:00.860Z,47.30
2023-02-17T05:29:00.869Z,45.17
2023-02-17T05:30:00.553Z,44.39
2023-02-17T05:31:00.642Z,43.83
2023-02-17T05:32:00.703Z,43.21
2023-02-17T05:33:00.623Z,44.74
2023-02-17T05:34:00.709Z,43.38
2023-02-17T05:35:00.754Z,43.47
2023-02-17T05:36:00.826Z,45.10
2023-02-17T05:37:00.879Z,46.20
2023-02-17T06:02:21.275Z,25.00
2023-02-17T06:03:21.370Z,25.00
2023-02-17T06:05:21.226Z,25.00
2023-02-17T06:06:21.192Z,25.00
2023-02-17T06:07:21.210Z,25.44
2023-02-17T06:08:21.171Z,26.25
2023-02-17T06:09:21.173Z,28.06
2023-02-17T06:10:21.172Z,26.65
2023-02-17T06:11:21.156Z,25.31
2023-02-17T06:12:21.171Z,25.68
2023-02-17T06:13:21.171Z,27.16
2023-02-17T06:14:21.155Z,26.67
2023-02-17T06:15:21.160Z,28.35
2023-02-17T06:16:21.168Z,27.12
2023-02-17T06:17:21.128Z,26.73
2023-02-17T06:18:21.143Z,26.43
2023-02-17T06:19:21.184Z,26.81
2023-02-17T06:20:21.134Z,27.53
2023-02-17T06:21:21.092Z,26.89
2023-02-17T06:22:21.101Z,28.89
2023-02-17T06:23:21.091Z,27.76
2023-02-17T06:24:21.080Z,26.86
2023-02-17T06:25:21.101Z,29.09
2023-02-17T06:39:21.023Z,26.16
2023-02-17T06:40:21.088Z,28.99
2023-02-17T06:41:21.151Z,28.78
2023-02-17T06:42:21.199Z,28.25
2023-02-17T06:43:21.283Z,27.77
2023-02-17T06:44:21.313Z,28.64
2023-02-17T07:01:21.241Z,30.23
2023-02-17T07:02:21.343Z,28.32
2023-02-17T07:03:21.241Z,27.69
2023-02-17T07:04:21.215Z,30.23
2023-02-17T07:05:21.266Z,28.46
2023-02-17T07:06:21.221Z,32.26
2023-02-17T07:07:21.250Z,29.79
2023-02-17T07:08:21.283Z,30.04
2023-02-17T07:09:21.342Z,30.73
2023-02-17T07:10:21.401Z,30.50
2023-02-17T07:11:21.456Z,29.60
2023-02-17T07:12:21.521Z,29.06
2023-02-17T07:33:22.632Z,31.38
2023-02-17T07:34:22.686Z,28.64
2023-02-17T07:35:22.751Z,27.86
2023-02-17T07:36:22.806Z,27.42
2023-02-17T07:37:22.879Z,27.43
2023-02-17T07:38:22.928Z,28.74
2023-02-17T07:39:22.972Z,29.30
2023-02-17T07:40:23.042Z,27.16
2023-02-17T07:41:23.034Z,29.97
2023-02-17T07:42:23.160Z,26.53
2023-02-17T07:43:23.173Z,29.08
2023-02-17T07:44:23.206Z,27.57
2023-02-17T07:45:23.275Z,31.40
2023-02-17T07:46:23.289Z,29.26
2023-02-17T07:47:23.408Z,28.59
2023-02-17T07:48:23.388Z,29.82
2023-02-17T07:49:23.481Z,28.50
2023-02-17T07:50:23.535Z,29.06
2023-02-17T07:51:23.558Z,29.02
2023-02-17T07:52:23.637Z,27.56
2023-02-17T07:53:23.671Z,30.20
2023-02-17T07:54:23.684Z,29.27
2023-02-17T07:55:23.760Z,28.05
2023-02-17T07:56:23.786Z,29.21
2023-02-17T07:57:23.866Z,28.27
2023-02-17T07:58:23.890Z,26.83
2023-02-17T07:59:23.954Z,28.42
2023-02-17T08:00:24.020Z,29.37
2023-02-17T08:01:24.070Z,29.00
2023-02-17T08:02:24.097Z,28.11
2023-02-17T08:03:24.162Z,29.30
2023-02-17T08:04:24.221Z,29.36
2023-02-17T08:05:24.295Z,29.70
2023-02-17T08:06:24.316Z,28.20
2023-02-17T08:07:24.342Z,27.82
2023-02-17T08:08:24.385Z,29.73
2023-02-17T08:09:24.429Z,30.65
2023-02-17T08:10:24.492Z,31.44
2023-02-17T08:11:24.549Z,28.89
2023-02-17T08:12:24.614Z,28.53
2023-02-17T08:13:24.694Z,26.81
2023-02-17T08:14:24.715Z,30.47
2023-02-17T08:15:24.748Z,28.55
2023-02-17T08:16:24.837Z,27.61
2023-02-17T08:17:24.818Z,27.90
2023-02-17T08:18:24.873Z,28.12
2023-02-17T11:14:32.641Z,28.86
2023-02-17T11:15:32.656Z,25.93
2023-02-17T11:16:32.777Z,25.47
2023-02-17T11:17:32.735Z,27.57
2023-02-17T11:18:32.778Z,28.42
2023-02-17T11:19:32.867Z,30.05
2023-02-17T11:20:32.909Z,30.90
2023-02-17T11:21:32.939Z,28.14
2023-02-17T11:22:33.002Z,25.00
2023-02-17T11:23:33.012Z,26.88
2023-02-17T11:24:33.061Z,28.45
2023-02-17T11:25:33.103Z,28.16
2023-02-17T11:26:33.156Z,26.52
2023-02-17T11:27:33.212Z,27.74
2023-02-17T11:28:33.219Z,29.51
2023-02-17T11:29:33.275Z,30.28
2023-02-17T11:30:33.349Z,27.08
2023-02-17T11:31:33.513Z,25.52
2023-02-17T11:32:33.388Z,29.09
2023-02-17T11:33:33.455Z,28.50
2023-02-17T11:34:33.481Z,29.60
2023-02-17T11:35:33.589Z,30.17
2023-02-17T11:36:33.595Z,28.97
2023-02-17T11:37:33.636Z,29.48
2023-02-17T11:38:33.671Z,30.91
2023-02-17T11:39:33.714Z,32.07
2023-02-17T11:40:33.749Z,34.35
2023-02-17T11:41:33.790Z,30.29
2023-02-17T11:42:33.860Z,28.83
2023-02-17T11:43:33.866Z,28.62
2023-02-17T11:44:33.924Z,30.30
2023-02-17T11:45:33.997Z,30.50
2023-02-17T11:46:34.040Z,30.95
2023-02-17T11:47:34.076Z,33.70
2023-02-17T11:48:34.123Z,31.56
2023-02-17T11:49:34.172Z,34.32
2023-02-17T11:50:41.287Z,34.38
2023-02-17T11:51:35.171Z,34.51
2023-02-17T11:52:34.188Z,34.58
2023-02-17T11:53:34.186Z,34.23
2023-02-17T11:54:34.154Z,31.99
2023-02-17T11:55:34.156Z,32.82
2023-02-17T11:56:34.128Z,32.70
2023-02-17T11:57:34.144Z,33.10
2023-02-17T11:58:34.108Z,34.24
2023-02-17T11:59:34.138Z,34.62
2023-02-17T12:00:34.102Z,32.89
2023-02-17T12:01:34.093Z,31.50
2023-02-17T12:02:34.085Z,32.81
2023-02-17T12:03:36.636Z,32.07
2023-02-17T12:04:34.317Z,30.56
2023-02-17T12:05:34.358Z,32.85
2023-02-17T12:06:34.405Z,34.25
2023-02-17T12:07:34.432Z,32.45
2023-02-17T12:08:34.497Z,33.10
2023-02-17T12:09:34.527Z,32.96
2023-02-17T12:10:34.604Z,33.26
2023-02-17T12:11:34.611Z,34.32
2023-02-17T12:12:34.655Z,33.00
2023-02-17T12:13:34.667Z,34.64
2023-02-17T12:14:34.727Z,33.44
2023-02-17T12:15:34.770Z,32.43
2023-02-17T12:16:34.874Z,33.34
2023-02-17T12:17:34.848Z,35.47
2023-02-17T12:18:34.905Z,34.84
2023-02-17T12:19:36.971Z,34.96
2023-02-17T12:20:34.951Z,36.61
2023-02-17T12:21:34.986Z,35.57
2023-02-17T12:22:35.037Z,34.96
2023-02-17T12:23:35.088Z,36.73
2023-02-17T12:30:35.478Z,36.92
2023-02-17T12:31:35.469Z,35.08
2023-02-17T12:32:35.438Z,34.96
2023-02-17T12:33:35.481Z,34.75
2023-02-17T12:34:35.538Z,33.36
2023-02-17T12:35:35.601Z,31.88
2023-02-17T12:36:35.595Z,31.18
2023-02-17T12:37:35.654Z,30.69
2023-02-17T12:38:35.679Z,30.67
2023-02-17T12:39:35.732Z,30.10
2023-02-17T12:40:35.765Z,29.72
2023-02-17T12:41:35.800Z,29.92
2023-02-17T12:42:35.856Z,29.01
2023-02-17T12:43:35.878Z,28.31
2023-02-17T12:50:36.209Z,26.32
2023-02-17T12:51:36.221Z,26.32
2023-02-17T12:52:36.242Z,26.46
2023-02-17T12:53:36.338Z,26.66
2023-02-17T12:54:36.361Z,25.53
2023-02-17T12:55:36.465Z,25.81
2023-02-17T12:56:36.476Z,26.49
2023-02-17T12:57:36.502Z,26.50
2023-02-17T12:58:36.500Z,25.00
2023-02-17T12:59:36.563Z,26.55
2023-02-17T13:00:36.639Z,27.84
2023-02-17T13:01:36.718Z,28.01
2023-02-17T13:02:36.725Z,27.89
2023-02-17T13:03:36.752Z,26.76
2023-02-17T13:05:36.826Z,26.32
2023-02-17T13:06:36.860Z,25.75
2023-02-17T13:07:36.952Z,27.02
2023-02-17T13:08:36.972Z,25.49
2023-02-17T13:09:37.019Z,25.09
2023-02-17T13:10:37.064Z,27.36
2023-02-17T13:11:37.118Z,25.40
2023-02-17T13:12:37.145Z,26.48
2023-02-17T13:13:37.178Z,25.82
2023-02-17T13:14:37.196Z,26.11
2023-02-17T13:15:37.361Z,26.56
2023-02-17T13:16:37.316Z,27.63
2023-02-17T13:17:37.358Z,25.00
2023-02-17T13:18:37.383Z,27.31
2023-02-17T13:19:37.431Z,26.95
2023-02-17T13:20:37.490Z,26.81
2023-02-17T13:21:37.554Z,26.08
2023-02-17T13:22:37.570Z,25.82
2023-02-17T13:23:37.616Z,28.72
2023-02-17T13:24:37.652Z,28.90
2023-02-17T13:25:37.938Z,29.47
2023-02-17T13:26:37.746Z,26.69
2023-02-17T13:27:37.799Z,27.07
2023-02-17T13:28:37.848Z,27.82
2023-02-17T13:29:37.884Z,26.41
2023-02-17T13:30:37.929Z,26.46
2023-02-17T13:32:38.151Z,28.52
2023-02-17T13:33:38.071Z,27.52
2023-02-17T13:34:38.095Z,26.68
2023-02-17T13:35:38.150Z,26.31
2023-02-17T13:36:38.211Z,26.00
2023-02-17T13:37:38.238Z,25.34
2023-02-17T13:38:38.240Z,25.69
2023-02-17T13:39:38.331Z,27.03
2023-02-17T13:40:38.361Z,26.03
2023-02-17T13:41:38.406Z,27.34
2023-02-17T13:42:38.404Z,27.51
2023-02-17T13:43:38.485Z,27.09
2023-02-17T13:44:38.521Z,26.58
2023-02-17T13:45:38.565Z,27.10
2023-02-17T13:46:38.616Z,27.33
2023-02-17T13:47:38.637Z,27.22
2023-02-17T13:48:38.686Z,25.00
2023-02-17T13:49:38.733Z,26.53
2023-02-17T13:50:38.788Z,26.89
2023-02-17T13:51:38.812Z,27.07
2023-02-17T15:19:42.658Z,31.21
2023-02-17T15:20:42.706Z,31.79
2023-02-17T15:21:42.778Z,34.42
2023-02-17T15:22:42.792Z,29.70
2023-02-17T15:23:42.855Z,31.43
2023-02-17T15:24:42.919Z,30.88
2023-02-17T15:25:42.998Z,34.07
2023-02-17T15:26:43.180Z,27.95
2023-02-17T15:27:43.123Z,29.08
2023-02-17T15:28:43.136Z,28.18
2023-02-17T15:29:43.169Z,26.89
2023-02-17T15:30:43.268Z,27.97
2023-02-17T15:31:43.420Z,26.59
2023-02-17T15:32:43.393Z,25.00
2023-02-17T15:33:43.411Z,27.86
2023-02-17T15:34:43.465Z,26.22
2023-02-17T15:35:43.525Z,31.35
2023-02-17T15:36:43.553Z,27.56
2023-02-17T15:37:43.641Z,26.53
2023-02-17T15:38:43.675Z,25.52
2023-02-17T15:39:43.751Z,26.50
2023-02-17T15:40:43.825Z,29.45
2023-02-17T15:41:43.854Z,28.71
2023-02-17T15:42:43.895Z,26.41
2023-02-17T15:43:43.962Z,28.96
2023-02-17T15:44:44.030Z,27.91
2023-02-17T15:45:44.100Z,26.41
2023-02-17T15:46:44.228Z,25.00
2023-02-17T15:47:44.207Z,27.47
2023-02-17T15:48:44.291Z,25.54
2023-02-17T15:49:44.293Z,25.00
2023-02-17T15:50:44.406Z,26.44
2023-02-17T15:51:44.456Z,26.29
2023-02-17T15:52:44.461Z,28.21
2023-02-17T15:53:44.570Z,34.67
2023-02-17T15:54:44.598Z,31.35
2023-02-17T15:55:44.666Z,36.28
2023-02-17T15:56:44.717Z,37.65
2023-02-17T15:57:44.795Z,37.95
2023-02-17T15:58:44.837Z,41.36
2023-02-17T15:59:44.906Z,41.14
2023-02-17T16:00:45.033Z,40.19
2023-02-17T16:01:45.067Z,37.22
2023-02-17T16:02:45.096Z,36.42
2023-02-17T16:03:45.150Z,39.42
2023-02-17T16:04:45.250Z,41.35
2023-02-17T16:05:45.294Z,37.95
2023-02-17T16:06:45.377Z,36.46
2023-02-17T16:07:45.434Z,38.74
2023-02-17T16:08:45.472Z,37.18
2023-02-17T16:09:45.529Z,39.07
2023-02-17T16:10:45.659Z,39.61
2023-02-17T16:11:45.672Z,39.19
2023-02-17T16:12:45.699Z,41.93
2023-02-17T16:13:45.762Z,40.74
2023-02-17T16:14:45.851Z,39.88
2023-02-17T16:15:45.908Z,37.43
2023-02-17T16:16:46.070Z,38.28
2023-02-17T16:17:45.985Z,40.75
2023-02-17T16:18:46.090Z,43.25
2023-02-17T16:19:46.126Z,42.41
2023-02-17T16:20:46.177Z,45.45
2023-02-17T16:21:46.213Z,46.61
2023-02-17T16:22:46.338Z,45.86
2023-02-17T16:23:46.314Z,42.60
2023-02-17T16:24:46.419Z,48.37
2023-02-17T16:25:46.482Z,49.76
2023-02-17T16:26:46.510Z,53.56
2023-02-17T16:27:46.540Z,48.29
2023-02-17T16:28:46.614Z,49.19
2023-02-17T16:29:46.617Z,51.14
2023-02-17T16:30:46.675Z,51.50
2023-02-17T16:31:46.779Z,44.66
2023-02-17T16:32:46.695Z,46.74
2023-02-17T16:33:46.731Z,46.26
2023-02-17T16:34:46.806Z,48.73
2023-02-17T16:35:46.816Z,52.82
2023-02-17T16:36:46.816Z,50.28
2023-02-17T16:37:46.858Z,53.94
2023-02-17T16:38:46.870Z,53.59
2023-02-17T16:39:46.861Z,51.89
2023-02-17T16:40:46.868Z,49.20
2023-02-17T16:41:46.901Z,47.58
2023-02-17T16:42:46.904Z,47.08
2023-02-17T16:43:46.917Z,51.97
2023-02-17T16:44:46.955Z,52.08
2023-02-17T16:45:46.962Z,49.47
2023-02-17T16:46:46.976Z,48.20
2023-02-17T16:47:46.954Z,50.63
2023-02-17T16:48:46.939Z,49.84
2023-02-17T16:49:46.935Z,50.05
2023-02-17T16:50:46.961Z,50.83
2023-02-17T16:51:46.938Z,52.98
2023-02-17T16:52:46.987Z,53.58
2023-02-17T16:53:46.954Z,52.69
2023-02-17T16:54:46.966Z,52.04
2023-02-17T16:55:46.964Z,53.86
2023-02-17T16:56:46.954Z,56.52
2023-02-17T16:57:46.942Z,56.33
2023-02-17T16:58:46.911Z,54.73
2023-02-17T16:59:46.894Z,56.57
2023-02-17T17:00:46.925Z,56.10
2023-02-17T17:01:46.952Z,51.99
2023-02-17T17:02:46.981Z,57.29
2023-02-17T17:03:46.945Z,59.06
2023-02-17T17:04:46.899Z,56.44
2023-02-17T17:05:46.934Z,54.72
2023-02-17T17:06:46.893Z,56.43
2023-02-17T17:07:46.881Z,55.79
2023-02-17T17:08:46.883Z,56.82
2023-02-17T17:10:06.901Z,57.94
2023-02-17T17:10:47.878Z,58.14
2023-02-17T17:11:46.865Z,58.68
2023-02-17T17:24:46.772Z,61.30
2023-02-17T17:25:47.109Z,61.63
2023-02-17T17:26:46.789Z,61.71
2023-02-17T17:27:46.762Z,60.08
2023-02-17T17:28:46.773Z,60.77
2023-02-17T17:29:46.749Z,63.63
2023-02-17T17:30:46.737Z,61.03
2023-02-17T17:31:46.807Z,63.74
2023-02-17T17:32:46.732Z,64.10
2023-02-17T17:33:46.749Z,62.48
2023-02-17T17:34:46.703Z,62.82
2023-02-17T17:35:46.733Z,65.61
2023-02-17T17:36:46.724Z,66.75
2023-02-17T17:37:46.690Z,65.05
2023-02-17T17:38:46.714Z,66.01
2023-02-17T17:39:46.733Z,67.55
2023-02-17T17:40:46.700Z,68.37
2023-02-17T17:41:46.693Z,67.69
2023-02-17T17:42:46.661Z,67.01
2023-02-17T17:43:46.644Z,71.13
2023-02-17T17:44:46.658Z,69.94
2023-02-17T17:45:46.677Z,71.58
2023-02-17T17:46:46.645Z,69.77
2023-02-17T17:47:46.646Z,68.21
2023-02-17T18:48:47.502Z,81.73
2023-02-17T18:49:47.564Z,84.02
2023-02-17T19:19:48.493Z,89.77
2023-02-17T20:54:52.678Z,96.98
2023-02-17T20:55:52.665Z,95.47
2023-02-17T20:56:52.720Z,99.60
2023-02-17T20:57:52.772Z,98.41
2023-02-17T20:58:52.851Z,97.81
2023-02-17T20:59:52.845Z,99.64
2023-02-17T21:00:52.899Z,95.99
2023-02-17T21:01:52.984Z,97.65
2023-02-17T21:02:53.038Z,98.07
2023-02-17T21:03:53.032Z,99.74
2023-02-17T21:04:53.090Z,102.52
2023-02-17T21:05:53.174Z,99.56
2023-02-17T21:06:53.206Z,95.59
2023-02-17T21:07:53.266Z,98.99
2023-02-17T21:08:53.360Z,99.33
2023-02-17T21:09:53.343Z,96.28
2023-02-17T21:10:53.406Z,98.19
2023-02-17T21:11:53.482Z,95.73
2023-02-17T21:12:53.530Z,93.90
2023-02-17T21:13:53.557Z,98.70
2023-02-17T21:14:53.607Z,97.20
2023-02-17T21:15:53.719Z,98.93
2023-02-17T21:16:53.714Z,95.70
2023-02-17T21:17:53.754Z,97.45
2023-02-17T21:18:53.811Z,96.46
2023-02-17T21:19:53.885Z,99.53
2023-02-17T21:20:53.913Z,97.83
2023-02-17T21:21:53.971Z,95.99
2023-02-17T21:22:54.039Z,98.67
2023-02-17T21:23:54.081Z,95.19
2023-02-17T21:24:54.127Z,93.25
2023-02-17T21:25:54.190Z,95.63
2023-02-17T21:26:54.241Z,93.96
2023-02-17T21:27:54.302Z,96.42
2023-02-17T21:28:54.352Z,95.43
2023-02-17T21:29:54.390Z,94.42
2023-02-17T21:30:54.541Z,94.86
2023-02-17T21:31:54.688Z,95.00
2023-02-17T21:32:54.558Z,95.49
2023-02-17T21:33:54.627Z,96.27
2023-02-17T21:34:54.661Z,94.99
2023-02-17T21:35:54.745Z,91.75
2023-02-17T21:36:54.769Z,93.32
2023-02-17T21:37:54.833Z,88.98
2023-02-17T21:38:54.876Z,95.88
2023-02-17T21:39:54.941Z,95.50
2023-02-17T21:40:54.961Z,97.16
2023-02-17T21:41:55.027Z,94.76
2023-02-17T21:42:55.090Z,94.84
2023-02-17T21:43:55.102Z,94.77
2023-02-17T21:44:55.193Z,90.42
2023-02-17T21:45:55.253Z,95.61
2023-02-17T21:46:55.284Z,98.43
2023-02-17T21:47:55.373Z,95.33
2023-02-17T21:48:55.383Z,96.62
2023-02-17T21:49:55.455Z,98.18
2023-02-17T21:50:55.487Z,93.49
2023-02-17T21:51:55.564Z,94.73
2023-02-17T21:52:55.611Z,94.67
2023-02-17T21:53:55.657Z,94.55
2023-02-17T21:54:55.693Z,91.47
2023-02-17T21:55:55.766Z,88.92
2023-02-17T21:56:55.980Z,95.14
2023-02-17T21:57:55.833Z,92.50
2023-02-17T21:58:55.931Z,93.01
2023-02-17T21:59:55.959Z,93.60
2023-02-17T22:00:56.088Z,90.63
2023-02-17T22:01:56.374Z,94.72
2023-02-17T22:02:56.108Z,91.23
2023-02-17T22:03:56.552Z,94.82
2023-02-17T22:04:56.576Z,91.85
2023-02-17T22:05:56.275Z,89.47
2023-02-17T22:06:56.288Z,95.37
2023-02-17T22:07:56.274Z,90.55
2023-02-17T22:08:56.343Z,93.90
2023-02-17T22:09:56.393Z,92.56
2023-02-17T22:10:56.460Z,92.92
2023-02-17T22:11:56.479Z,94.34
2023-02-17T22:12:56.532Z,89.96
2023-02-17T22:13:56.596Z,91.94
2023-02-17T22:14:56.612Z,88.89
2023-02-17T22:15:56.669Z,88.58
2023-02-17T22:16:56.709Z,88.64
2023-02-17T22:17:56.800Z,89.67
2023-02-17T22:18:56.878Z,90.31
2023-02-17T22:19:56.879Z,87.85
2023-02-17T22:20:56.930Z,86.33
2023-02-17T22:21:56.985Z,87.47
2023-02-17T22:22:57.041Z,88.76
2023-02-17T22:23:57.056Z,87.09
2023-02-17T22:24:57.105Z,90.97
2023-02-17T22:25:57.164Z,90.11
2023-02-17T22:26:57.232Z,90.63
2023-02-17T22:27:57.279Z,89.01
2023-02-17T22:28:57.290Z,90.09
2023-02-17T22:29:57.433Z,90.37
2023-02-17T22:30:57.414Z,91.89
2023-02-17T22:31:57.588Z,88.81
2023-02-17T22:32:57.527Z,88.35
2023-02-17T22:33:57.594Z,89.64
2023-02-17T22:34:57.631Z,88.10
2023-02-17T22:35:57.708Z,88.79
2023-02-17T22:36:57.716Z,86.65
2023-02-17T22:37:57.775Z,86.47
2023-02-17T22:38:57.831Z,84.38
2023-02-17T22:39:57.882Z,87.65
2023-02-17T22:40:57.938Z,88.53
2023-02-17T22:41:57.973Z,87.32
2023-02-17T22:42:58.055Z,83.22
2023-02-17T22:43:58.106Z,84.44
2023-02-17T22:44:58.261Z,84.02
2023-02-17T22:45:58.238Z,83.27
2023-02-17T22:46:58.435Z,81.57
2023-02-17T22:47:58.294Z,83.85
2023-02-17T22:48:58.341Z,77.88
2023-02-17T22:49:58.406Z,80.99
2023-02-17T22:50:58.464Z,84.28
2023-02-17T22:51:58.528Z,81.13
2023-02-17T22:52:58.556Z,82.37
2023-02-17T22:53:58.610Z,81.68
2023-02-17T22:54:58.677Z,81.67
2023-02-17T22:55:58.767Z,81.35
2023-02-17T22:56:58.767Z,82.11
2023-02-17T22:57:58.833Z,79.49
2023-02-17T22:58:58.890Z,80.36
2023-02-17T22:59:58.941Z,77.16
2023-02-17T23:01:59.045Z,79.74
2023-02-17T23:03:59.174Z,78.00
2023-02-17T23:09:59.467Z,74.81
2023-02-17T23:10:59.511Z,74.71
2023-02-17T23:12:59.632Z,70.43
2023-02-17T23:15:59.796Z,73.98
2023-02-17T23:16:59.893Z,72.62
